createdAt,value
2018-11-01T00:00:13.450Z,83.04
2018-11-01T00:02:42.134Z,83.65
2018-11-01T00:05:10.874Z,84.35
2018-11-01T00:07:39.670Z,83.99
2018-11-01T00:10:08.317Z,84.34
2018-11-01T00:12:40.046Z,84.18
2018-11-01T00:15:09.479Z,84.17
2018-11-01T00:17:38.370Z,83.81
2018-11-01T00:20:09.005Z,84.83
2018-11-01T00:22:37.777Z,84.57
2018-11-01T00:25:07.251Z,84.70
2018-11-01T00:27:35.920Z,84.49
2018-11-01T00:30:08.505Z,85.34
2018-11-01T00:32:37.230Z,84.96
2018-11-01T00:35:06.053Z,85.02
2018-11-01T00:37:34.751Z,84.98
2018-11-01T00:40:03.661Z,85.18
2018-11-01T00:42:32.326Z,84.82
2018-11-01T00:45:00.938Z,84.40
2018-11-01T00:47:29.568Z,84.91
2018-11-01T00:49:58.183Z,84.66
2018-11-01T00:52:26.890Z,85.08
2018-11-01T00:54:55.516Z,85.31
2018-11-01T00:57:24.175Z,84.38
2018-11-01T00:59:52.809Z,83.53
2018-11-01T01:02:21.481Z,84.76
2018-11-01T01:04:50.122Z,86.08
2018-11-01T01:07:18.727Z,86.11
2018-11-01T01:09:47.339Z,85.86
2018-11-01T01:12:15.966Z,86.44
2018-11-01T01:14:44.617Z,86.19
2018-11-01T01:17:13.251Z,85.84
2018-11-01T01:19:41.912Z,85.51
2018-11-01T01:22:10.618Z,86.12
2018-11-01T01:24:39.273Z,85.79
2018-11-01T01:27:07.979Z,85.17
2018-11-01T01:29:36.685Z,86.02
2018-11-01T01:32:05.340Z,84.57
2018-11-01T01:34:34.023Z,83.98
2018-11-01T01:37:02.637Z,82.97
2018-11-01T01:39:31.297Z,83.46
2018-11-01T01:42:00.291Z,82.62
2018-11-01T01:44:28.899Z,81.94
2018-11-01T01:46:57.592Z,80.78
2018-11-01T01:49:26.402Z,81.38
2018-11-01T01:51:55.081Z,82.37
2018-11-01T01:54:23.986Z,82.77
2018-11-01T01:56:52.633Z,83.50
2018-11-01T01:59:21.346Z,84.36
2018-11-01T02:01:49.997Z,84.39
2018-11-01T02:04:18.686Z,84.70
2018-11-01T02:06:47.320Z,84.35
2018-11-01T02:09:15.950Z,84.54
2018-11-01T02:11:45.129Z,84.83
2018-11-01T02:14:13.745Z,85.37
2018-11-01T02:16:42.868Z,85.74
2018-11-01T02:19:11.526Z,86.50
2018-11-01T02:21:40.190Z,86.08
2018-11-01T02:24:08.842Z,85.85
2018-11-01T02:26:37.476Z,85.92
2018-11-01T02:29:06.523Z,85.45
2018-11-01T02:31:35.182Z,86.12
2018-11-01T02:34:04.167Z,84.20
2018-11-01T02:36:32.923Z,83.73
2018-11-01T02:39:01.577Z,84.34
2018-11-01T02:41:30.256Z,84.88
2018-11-01T02:43:58.977Z,84.19
2018-11-01T02:46:27.613Z,84.13
2018-11-01T02:48:56.276Z,83.57
2018-11-01T02:51:24.904Z,82.97
2018-11-01T02:53:53.503Z,85.39
2018-11-01T02:56:22.243Z,85.77
2018-11-01T02:58:50.955Z,85.42
2018-11-01T03:01:19.903Z,84.06
2018-11-01T03:03:49.850Z,83.37
2018-11-01T03:06:19.013Z,84.17
2018-11-01T03:08:47.722Z,84.64
2018-11-01T03:11:16.384Z,84.83
2018-11-01T03:13:45.187Z,83.76
2018-11-01T03:16:13.922Z,82.84
2018-11-01T03:18:42.581Z,83.04
2018-11-01T03:21:11.228Z,83.58
2018-11-01T03:23:39.882Z,84.25
2018-11-01T03:26:08.506Z,84.68
2018-11-01T03:28:37.175Z,84.18
2018-11-01T03:31:06.134Z,84.36
2018-11-01T03:33:34.775Z,85.54
2018-11-01T03:36:03.517Z,84.58
2018-11-01T03:38:32.337Z,83.84
2018-11-01T03:41:01.050Z,83.14
2018-11-01T03:43:29.725Z,83.77
2018-11-01T03:45:58.400Z,84.34
2018-11-01T03:48:27.024Z,85.17
2018-11-01T03:50:55.673Z,85.37
2018-11-01T03:53:24.381Z,86.18
2018-11-01T03:55:53.083Z,85.56
2018-11-01T03:58:21.782Z,85.78
2018-11-01T04:00:50.540Z,86.07
2018-11-01T04:03:19.211Z,86.69
2018-11-01T04:05:47.861Z,86.37
2018-11-01T04:08:16.530Z,86.63
2018-11-01T04:10:45.259Z,85.86
2018-11-01T04:13:13.877Z,84.53
2018-11-01T04:15:42.570Z,84.47
2018-11-01T04:18:11.213Z,84.27
2018-11-01T04:20:39.922Z,84.52
2018-11-01T04:23:08.633Z,85.46
2018-11-01T04:25:37.298Z,85.96
2018-11-01T04:28:06.021Z,86.19
2018-11-01T04:30:34.707Z,85.82
2018-11-01T04:33:03.425Z,86.19
2018-11-01T04:35:32.012Z,85.97
2018-11-01T04:38:00.722Z,84.65
2018-11-01T04:40:29.408Z,83.69
2018-11-01T04:42:58.046Z,83.51
2018-11-01T04:45:26.732Z,84.02
2018-11-01T04:47:55.420Z,83.69
2018-11-01T04:50:24.052Z,82.85
2018-11-01T04:52:52.989Z,83.47
2018-11-01T04:55:21.677Z,84.31
2018-11-01T04:57:50.401Z,83.53
2018-11-01T05:00:19.126Z,82.76
2018-11-01T05:02:47.761Z,81.49
2018-11-01T05:05:16.480Z,81.92
2018-11-01T05:07:45.130Z,81.26
2018-11-01T05:10:13.971Z,80.84
2018-11-01T05:12:42.708Z,80.43
2018-11-01T05:15:11.332Z,80.89
2018-11-01T05:17:39.995Z,80.31
2018-11-01T05:20:23.899Z,80.24
2018-11-01T05:22:52.548Z,80.28
2018-11-01T05:25:21.303Z,80.47
2018-11-01T05:27:50.039Z,79.97
2018-11-01T05:30:18.698Z,80.08
2018-11-01T05:32:47.349Z,80.43
2018-11-01T05:35:16.001Z,80.07
2018-11-01T05:37:44.705Z,80.94
2018-11-01T05:40:13.439Z,80.97
2018-11-01T05:42:43.087Z,80.20
2018-11-01T05:45:11.948Z,81.10
2018-11-01T05:47:40.650Z,80.80
2018-11-01T05:50:09.308Z,79.88
2018-11-01T05:52:38.454Z,79.20
2018-11-01T05:55:07.694Z,79.10
2018-11-01T05:57:36.414Z,77.84
2018-11-01T06:00:10.850Z,77.64
2018-11-01T06:02:41.322Z,77.71
2018-11-01T06:05:10.597Z,77.91
2018-11-01T06:08:44.984Z,78.06
2018-11-01T06:11:13.630Z,77.12
2018-11-01T06:13:42.293Z,75.84
2018-11-01T06:16:10.925Z,75.87
2018-11-01T06:18:39.552Z,76.21
2018-11-01T06:21:08.229Z,75.65
2018-11-01T06:23:36.854Z,75.52
2018-11-01T06:26:05.598Z,75.91
2018-11-01T06:28:48.673Z,75.89
2018-11-01T06:31:17.329Z,75.57
2018-11-01T06:33:45.961Z,76.49
2018-11-01T06:36:15.700Z,76.58
2018-11-01T06:38:44.471Z,76.50
2018-11-01T06:41:13.206Z,76.30
2018-11-01T06:43:41.905Z,76.13
2018-11-01T06:46:10.640Z,76.54
2018-11-01T06:48:39.322Z,76.03
2018-11-01T06:51:08.160Z,76.79
2018-11-01T06:53:36.901Z,77.34
2018-11-01T06:56:05.836Z,76.52
2018-11-01T06:58:34.624Z,77.54
2018-11-01T07:01:03.171Z,77.05
2018-11-01T07:03:31.882Z,76.90
2018-11-01T07:06:00.508Z,77.29
2018-11-01T07:08:29.158Z,77.40
2018-11-01T07:10:57.807Z,76.78
2018-11-01T07:13:26.464Z,76.90
2018-11-01T07:15:55.097Z,75.35
2018-11-01T07:18:23.742Z,75.13
2018-11-01T07:20:52.389Z,74.66
2018-11-01T07:23:21.034Z,74.21
2018-11-01T07:25:49.724Z,73.97
2018-11-01T07:28:18.482Z,73.57
2018-11-01T07:30:47.141Z,73.38
2018-11-01T07:33:15.813Z,72.38
2018-11-01T07:35:44.465Z,71.45
2018-11-01T07:38:13.114Z,72.08
2018-11-01T07:40:41.907Z,71.17
2018-11-01T07:43:10.553Z,69.40
2018-11-01T07:45:39.217Z,69.82
2018-11-01T07:48:07.909Z,67.68
2018-11-01T07:50:36.579Z,66.20
2018-11-01T07:53:05.316Z,64.48
2018-11-01T07:55:34.029Z,65.34
2018-11-01T07:58:02.727Z,64.13
2018-11-01T08:00:31.468Z,64.50
2018-11-01T08:03:00.072Z,63.79
2018-11-01T08:05:28.679Z,64.63
2018-11-01T08:07:57.417Z,64.68
2018-11-01T08:10:26.026Z,65.07
2018-11-01T08:12:54.952Z,64.92
2018-11-01T08:15:23.635Z,64.04
2018-11-01T08:17:52.337Z,64.53
2018-11-01T08:20:21.220Z,63.78
2018-11-01T08:22:49.716Z,64.72
2018-11-01T08:25:18.353Z,65.12
2018-11-01T08:27:47.068Z,63.86
2018-11-01T08:30:17.058Z,63.04
2018-11-01T08:32:45.730Z,63.21
2018-11-01T08:35:14.447Z,64.29
2018-11-01T08:37:44.786Z,63.81
2018-11-01T08:40:13.918Z,63.87
2018-11-01T08:42:43.018Z,64.37
2018-11-01T08:45:13.010Z,64.40
2018-11-01T08:47:42.089Z,63.24
2018-11-01T08:50:12.073Z,63.64
2018-11-01T08:52:41.523Z,64.20
2018-11-01T08:55:10.804Z,64.38
2018-11-01T08:57:40.226Z,62.81
2018-11-01T09:00:09.709Z,61.42
2018-11-01T09:02:38.557Z,60.32
2018-11-01T09:05:08.073Z,59.38
2018-11-01T09:07:36.892Z,59.94
2018-11-01T09:10:07.612Z,58.99
2018-11-01T09:12:36.343Z,59.42
2018-11-01T09:15:05.685Z,59.60
2018-11-01T09:17:34.493Z,60.67
2018-11-01T09:20:03.208Z,59.74
2018-11-01T09:22:31.867Z,59.80
2018-11-01T09:25:00.613Z,58.99
2018-11-01T09:27:29.368Z,58.69
2018-11-01T09:29:58.062Z,58.49
2018-11-01T09:32:26.755Z,57.66
2018-11-01T09:34:55.502Z,57.88
2018-11-01T09:37:24.250Z,57.56
2018-11-01T09:39:52.914Z,57.21
2018-11-01T09:42:21.890Z,57.25
2018-11-01T09:44:50.754Z,55.71
2018-11-01T09:47:19.761Z,54.14
2018-11-01T09:49:48.046Z,54.23
2018-11-01T09:52:16.702Z,53.56
2018-11-01T09:54:45.404Z,52.96
2018-11-01T09:57:14.400Z,52.16
2018-11-01T09:59:43.266Z,53.29
2018-11-01T10:02:11.907Z,54.16
2018-11-01T10:04:40.789Z,55.12
2018-11-01T10:07:09.584Z,56.28
2018-11-01T10:09:38.142Z,56.43
2018-11-01T10:12:06.868Z,56.35
2018-11-01T10:14:35.526Z,56.35
2018-11-01T10:17:04.462Z,56.32
2018-11-01T10:19:33.114Z,56.27
2018-11-01T10:22:02.086Z,56.27
2018-11-01T10:24:30.704Z,56.69
2018-11-01T10:26:59.405Z,57.02
2018-11-01T10:29:34.542Z,57.76
2018-11-01T10:32:03.282Z,56.93
2018-11-01T10:34:31.981Z,57.42
2018-11-01T10:37:00.630Z,56.34
2018-11-01T10:39:29.288Z,56.26
2018-11-01T10:41:57.901Z,57.12
2018-11-01T10:44:26.573Z,56.89
2018-11-01T10:46:55.229Z,55.81
2018-11-01T10:49:23.965Z,55.58
2018-11-01T10:51:52.638Z,55.31
2018-11-01T10:54:21.283Z,55.62
2018-11-01T10:56:49.960Z,55.90
2018-11-01T10:59:19.008Z,55.32
2018-11-01T11:01:52.900Z,55.54
2018-11-01T11:04:21.602Z,54.85
2018-11-01T11:06:50.229Z,54.73
2018-11-01T11:09:18.885Z,54.99
2018-11-01T11:11:47.560Z,54.70
2018-11-01T11:14:16.316Z,54.22
2018-11-01T11:16:45.039Z,54.36
2018-11-01T11:19:13.835Z,54.22
2018-11-01T11:21:42.873Z,54.51
2018-11-01T11:24:12.428Z,55.23
2018-11-01T11:26:41.115Z,55.19
2018-11-01T11:29:10.410Z,54.96
2018-11-01T11:31:39.084Z,54.67
2018-11-01T11:34:07.758Z,54.67
2018-11-01T11:36:36.810Z,53.94
2018-11-01T11:39:09.071Z,54.29
2018-11-01T11:41:37.774Z,54.03
2018-11-01T11:44:06.517Z,53.90
2018-11-01T11:46:36.191Z,53.33
2018-11-01T11:49:05.694Z,52.89
2018-11-01T11:51:34.494Z,52.74
2018-11-01T11:54:03.273Z,52.31
2018-11-01T11:56:32.154Z,51.98
2018-11-01T11:59:01.032Z,52.13
2018-11-01T12:01:29.762Z,52.16
2018-11-01T12:03:58.491Z,52.14
2018-11-01T12:06:27.212Z,52.49
2018-11-01T12:08:55.901Z,52.11
2018-11-01T12:11:24.772Z,51.85
2018-11-01T12:13:53.485Z,51.77
2018-11-01T12:16:22.200Z,52.67
2018-11-01T12:18:50.902Z,52.41
2018-11-01T12:21:19.609Z,52.59
2018-11-01T12:23:48.348Z,52.31
2018-11-01T12:26:17.072Z,52.06
2018-11-01T12:28:45.886Z,52.42
2018-11-01T12:31:14.487Z,52.58
2018-11-01T12:33:43.155Z,52.32
2018-11-01T12:36:11.902Z,52.18
2018-11-01T12:38:40.604Z,52.09
2018-11-01T12:41:09.266Z,52.64
2018-11-01T12:43:37.934Z,52.89
2018-11-01T12:46:06.541Z,52.47
2018-11-01T12:48:35.170Z,52.76
2018-11-01T12:51:03.835Z,52.95
2018-11-01T12:53:32.537Z,53.39
2018-11-01T12:56:01.189Z,53.21
2018-11-01T12:58:29.852Z,52.62
2018-11-01T13:00:58.656Z,52.66
2018-11-01T13:03:27.338Z,52.40
2018-11-01T13:05:56.012Z,52.54
2018-11-01T13:08:24.649Z,52.20
2018-11-01T13:10:53.309Z,51.94
2018-11-01T13:13:21.991Z,51.56
2018-11-01T13:15:50.713Z,51.66
2018-11-01T13:18:19.720Z,51.86
2018-11-01T13:20:48.394Z,51.65
2018-11-01T13:23:17.075Z,51.43
2018-11-01T13:25:45.733Z,51.28
2018-11-01T13:28:14.450Z,50.99
2018-11-01T13:30:43.211Z,51.30
2018-11-01T13:33:11.883Z,51.12
2018-11-01T13:35:40.555Z,51.19
2018-11-01T13:38:09.229Z,51.30
2018-11-01T13:40:38.232Z,51.40
2018-11-01T13:43:06.886Z,51.03
2018-11-01T13:45:35.599Z,51.21
2018-11-01T13:48:04.399Z,51.58
2018-11-01T13:50:32.926Z,51.88
2018-11-01T13:53:01.799Z,51.88
2018-11-01T13:55:30.481Z,51.85
2018-11-01T13:57:59.133Z,52.24
2018-11-01T14:00:27.782Z,52.19
2018-11-01T14:02:56.465Z,52.99
2018-11-01T14:05:25.168Z,52.19
2018-11-01T14:07:53.842Z,53.16
2018-11-01T14:10:22.512Z,52.35
2018-11-01T14:12:51.157Z,52.60
2018-11-01T14:15:20.191Z,53.24
2018-11-01T14:17:48.498Z,52.86
2018-11-01T14:20:17.180Z,53.53
2018-11-01T14:22:45.831Z,52.82
2018-11-01T14:25:14.539Z,53.44
2018-11-01T14:27:43.455Z,54.05
2018-11-01T14:30:15.027Z,54.25
2018-11-01T14:32:43.701Z,53.99
2018-11-01T14:35:12.693Z,53.99
2018-11-01T14:37:41.434Z,53.98
2018-11-01T14:40:11.819Z,54.45
2018-11-01T14:42:40.774Z,55.14
2018-11-01T14:45:10.075Z,54.40
2018-11-01T14:47:38.958Z,55.18
2018-11-01T14:50:08.487Z,54.66
2018-11-01T14:52:37.718Z,55.64
2018-11-01T14:55:07.398Z,56.03
2018-11-01T14:57:36.520Z,55.95
2018-11-01T15:00:07.469Z,55.53
2018-11-01T15:02:36.322Z,55.66
2018-11-01T15:05:05.144Z,55.59
2018-11-01T15:07:33.887Z,56.13
2018-11-01T15:10:02.542Z,56.65
2018-11-01T15:12:31.206Z,56.31
2018-11-01T15:14:59.866Z,55.84
2018-11-01T15:17:28.576Z,55.81
2018-11-01T15:19:57.306Z,56.43
2018-11-01T15:22:25.978Z,56.48
2018-11-01T15:24:54.612Z,56.48
2018-11-01T15:27:23.365Z,56.53
2018-11-01T15:29:52.080Z,56.91
2018-11-01T15:32:29.017Z,56.61
2018-11-01T15:34:58.543Z,57.05
2018-11-01T15:37:27.269Z,57.53
2018-11-01T15:39:56.106Z,57.21
2018-11-01T15:42:24.740Z,57.19
2018-11-01T15:44:53.490Z,56.74
2018-11-01T15:47:22.204Z,57.01
2018-11-01T15:49:50.848Z,57.28
2018-11-01T15:52:19.552Z,57.66
2018-11-01T15:54:48.244Z,58.22
2018-11-01T15:57:16.909Z,58.33
2018-11-01T15:59:45.723Z,58.03
2018-11-01T16:02:14.324Z,58.17
2018-11-01T16:04:42.986Z,58.53
2018-11-01T16:07:11.647Z,58.87
2018-11-01T16:09:40.389Z,58.16
2018-11-01T16:12:09.069Z,58.70
2018-11-01T16:14:37.778Z,58.56
2018-11-01T16:17:06.500Z,58.45
2018-11-01T16:19:35.219Z,57.98
2018-11-01T16:22:03.872Z,58.41
2018-11-01T16:24:32.684Z,58.88
2018-11-01T16:27:01.368Z,59.02
2018-11-01T16:29:30.015Z,59.59
2018-11-01T16:31:58.845Z,58.71
2018-11-01T16:34:27.534Z,58.93
2018-11-01T16:36:56.270Z,58.86
2018-11-01T16:39:24.915Z,59.16
2018-11-01T16:41:53.612Z,59.41
2018-11-01T16:44:22.288Z,59.62
2018-11-01T16:46:51.045Z,59.41
2018-11-01T16:49:20.589Z,60.27
2018-11-01T16:51:49.429Z,59.90
2018-11-01T16:54:18.095Z,60.55
2018-11-01T16:56:46.801Z,60.30
2018-11-01T16:59:15.516Z,60.78
2018-11-01T17:01:44.170Z,61.33
2018-11-01T17:04:12.923Z,61.47
2018-11-01T17:06:41.690Z,60.93
2018-11-01T17:09:11.127Z,61.96
2018-11-01T17:11:40.253Z,62.35
2018-11-01T17:14:08.942Z,62.54
2018-11-01T17:16:37.962Z,63.07
2018-11-01T17:19:07.762Z,64.23
2018-11-01T17:21:36.546Z,64.76
2018-11-01T17:24:05.613Z,65.48
2018-11-01T17:26:34.332Z,65.32
2018-11-01T17:29:02.975Z,64.53
2018-11-01T17:31:31.618Z,65.07
2018-11-01T17:34:00.709Z,65.38
2018-11-01T17:36:29.279Z,64.62
2018-11-01T17:38:57.931Z,64.24
2018-11-01T17:41:26.611Z,64.78
2018-11-01T17:43:55.422Z,64.80
2018-11-01T17:46:24.055Z,63.40
2018-11-01T17:48:52.715Z,64.21
2018-11-01T17:51:21.509Z,63.73
2018-11-01T17:53:50.086Z,63.63
2018-11-01T17:56:18.756Z,63.28
2018-11-01T17:58:47.450Z,63.50
2018-11-01T18:01:16.133Z,63.42
2018-11-01T18:03:44.810Z,62.67
2018-11-01T18:06:13.531Z,63.17
2018-11-01T18:08:42.226Z,62.96
2018-11-01T18:11:10.893Z,62.48
2018-11-01T18:13:39.554Z,63.36
2018-11-01T18:16:08.172Z,63.20
2018-11-01T18:18:36.842Z,62.29
2018-11-01T18:21:05.733Z,63.02
2018-11-01T18:23:34.401Z,63.04
2018-11-01T18:26:03.108Z,62.69
2018-11-01T18:28:31.846Z,62.51
2018-11-01T18:31:00.788Z,62.82
2018-11-01T18:33:29.448Z,62.67
2018-11-01T18:35:58.114Z,62.36
2018-11-01T18:38:26.806Z,63.58
2018-11-01T18:40:55.487Z,62.64
2018-11-01T18:43:24.178Z,63.37
2018-11-01T18:45:52.877Z,63.16
2018-11-01T18:48:21.674Z,63.33
2018-11-01T18:50:50.436Z,63.69
2018-11-01T18:53:19.126Z,63.24
2018-11-01T18:55:47.804Z,63.14
2018-11-01T18:58:16.456Z,63.84
2018-11-01T19:00:45.578Z,64.34
2018-11-01T19:03:14.169Z,63.84
2018-11-01T19:05:42.892Z,64.67
2018-11-01T19:08:11.542Z,64.17
2018-11-01T19:10:40.698Z,64.21
2018-11-01T19:13:09.334Z,64.75
2018-11-01T19:15:38.229Z,64.53
2018-11-01T19:18:06.948Z,65.30
2018-11-01T19:20:36.164Z,64.89
2018-11-01T19:23:04.817Z,65.00
2018-11-01T19:25:33.523Z,65.09
2018-11-01T19:28:02.316Z,65.88
2018-11-01T19:30:30.924Z,65.81
2018-11-01T19:32:59.600Z,65.28
2018-11-01T19:35:28.229Z,66.08
2018-11-01T19:37:56.885Z,66.33
2018-11-01T19:40:25.627Z,66.73
2018-11-01T19:42:54.246Z,65.08
2018-11-01T19:45:22.889Z,66.14
2018-11-01T19:47:51.549Z,65.75
2018-11-01T19:50:20.252Z,65.98
2018-11-01T19:52:48.976Z,65.97
2018-11-01T19:55:17.661Z,66.64
2018-11-01T19:57:46.313Z,66.98
2018-11-01T20:00:16.655Z,66.91
2018-11-01T20:02:46.176Z,66.45
2018-11-01T20:05:14.962Z,66.86
2018-11-01T20:07:43.743Z,66.51
2018-11-01T20:10:13.591Z,66.56
2018-11-01T20:12:42.629Z,66.86
2018-11-01T20:15:11.301Z,66.12
2018-11-01T20:17:40.005Z,66.05
2018-11-01T20:20:10.783Z,67.28
2018-11-01T20:22:39.501Z,66.21
2018-11-01T20:25:08.455Z,66.68
2018-11-01T20:27:37.539Z,65.90
2018-11-01T20:30:14.182Z,65.90
2018-11-01T20:32:43.541Z,66.33
2018-11-01T20:35:14.371Z,66.29
2018-11-01T20:37:43.680Z,66.38
2018-11-01T20:40:12.728Z,66.27
2018-11-01T20:42:42.078Z,66.46
2018-11-01T20:45:11.747Z,67.49
2018-11-01T20:47:40.390Z,67.67
2018-11-01T20:50:10.512Z,68.09
2018-11-01T20:52:39.411Z,68.28
2018-11-01T20:55:09.119Z,68.13
2018-11-01T20:57:38.119Z,68.09
2018-11-01T21:00:11.907Z,68.52
2018-11-01T21:02:40.686Z,68.26
2018-11-01T21:05:11.346Z,69.05
2018-11-01T21:07:40.000Z,68.43
2018-11-01T21:10:09.871Z,69.37
2018-11-01T21:12:39.186Z,69.58
2018-11-01T21:15:09.503Z,70.04
2018-11-01T21:17:38.246Z,70.93
2018-11-01T21:20:07.379Z,72.58
2018-11-01T21:22:36.081Z,73.50
2018-11-01T21:25:04.973Z,73.35
2018-11-01T21:27:33.711Z,74.53
2018-11-01T21:30:06.253Z,75.98
2018-11-01T21:32:34.926Z,76.02
2018-11-01T21:35:03.821Z,77.34
2018-11-01T21:37:32.571Z,77.14
2018-11-01T21:40:01.543Z,78.01
2018-11-01T21:42:30.337Z,77.70
2018-11-01T21:44:59.115Z,77.75
2018-11-01T21:47:27.866Z,78.09
2018-11-01T21:49:56.517Z,78.26
2018-11-01T21:52:25.326Z,77.92
2018-11-01T21:54:54.131Z,78.57
2018-11-01T21:57:22.818Z,79.84
2018-11-01T21:59:51.612Z,79.26
2018-11-01T22:02:20.286Z,80.21
2018-11-01T22:04:48.936Z,79.87
2018-11-01T22:07:17.767Z,80.24
2018-11-01T22:09:46.721Z,80.55
2018-11-01T22:12:15.356Z,80.37
2018-11-01T22:14:44.000Z,80.44
2018-11-01T22:17:12.646Z,80.67
2018-11-01T22:19:41.279Z,81.44
2018-11-01T22:22:09.965Z,81.71
2018-11-01T22:24:38.597Z,81.58
2018-11-01T22:27:07.260Z,81.65
2018-11-01T22:29:36.164Z,81.75
2018-11-01T22:32:04.798Z,81.48
2018-11-01T22:34:33.482Z,81.66
2018-11-01T22:37:02.227Z,81.72
2018-11-01T22:39:30.911Z,82.07
2018-11-01T22:41:59.670Z,82.02
2018-11-01T22:44:28.396Z,81.78
2018-11-01T22:46:57.073Z,81.33
2018-11-01T22:49:25.762Z,81.98
2018-11-01T22:51:54.742Z,81.83
2018-11-01T22:54:23.397Z,81.74
2018-11-01T22:56:52.082Z,82.47
2018-11-01T22:59:20.712Z,82.44
2018-11-01T23:01:49.455Z,82.24
2018-11-01T23:04:18.115Z,82.82
2018-11-01T23:06:46.753Z,82.73
2018-11-01T23:09:15.395Z,82.91
2018-11-01T23:11:44.050Z,82.55
2018-11-01T23:14:12.662Z,83.17
2018-11-01T23:16:41.333Z,83.33
2018-11-01T23:19:10.309Z,82.65
2018-11-01T23:21:38.952Z,82.65
2018-11-01T23:24:07.617Z,83.12
2018-11-01T23:26:36.285Z,82.96
2018-11-01T23:29:04.921Z,83.85
2018-11-01T23:31:33.779Z,83.67
2018-11-01T23:34:02.469Z,84.19
2018-11-01T23:36:36.274Z,83.98
2018-11-01T23:39:12.670Z,84.15
2018-11-01T23:41:46.749Z,83.59
2018-11-01T23:44:20.725Z,83.65
2018-11-01T23:46:54.615Z,83.79
2018-11-01T23:49:27.435Z,84.11
2018-11-01T23:52:01.630Z,84.58
2018-11-01T23:54:30.326Z,83.94
2018-11-01T23:56:58.973Z,84.32
2018-11-01T23:59:27.622Z,84.14
